Time;durP1;ratioP1;P1;durP2;ratioP2;P2;SDS_P1;SDS_P2;PMS_P1;PMS_P2;Temp;Humidity;BMP_temperature;BMP_pressure;BME280_temperature;BME280_humidity;BME280_pressure;Samples;Min_cycle;Max_cycle;Signal;HPM_P1;HPM_P2
2023/06/26 00:02:17;;;;;;;4.57;4.18;;;19.40;99.90;;;;;;5055749;28;20197;-80
2023/06/26 00:04:43;;;;;;;4.47;4.07;;;19.40;1.00;;;;;;5037143;28;20237;-80
2023/06/26 00:07:09;;;;;;;5.50;4.45;;;19.40;99.90;;;;;;5055793;28;20600;-81
2023/06/26 00:09:35;;;;;;;4.53;4.13;;;19.30;1.00;;;;;;5036946;28;20185;-80
2023/06/26 00:12:01;;;;;;;4.60;4.07;;;19.40;99.90;;;;;;5037733;28;20178;-80
2023/06/26 00:14:26;;;;;;;5.65;4.22;;;19.40;99.90;;;;;;5037231;28;20625;-81
2023/06/26 00:16:52;;;;;;;4.43;4.03;;;19.30;99.90;;;;;;5037387;28;20193;-80
2023/06/26 00:19:18;;;;;;;4.90;4.40;;;19.10;99.90;;;;;;5054970;28;20204;-80
2023/06/26 00:21:46;;;;;;;5.85;4.47;;;19.00;99.90;;;;;;5036770;28;20181;-81
2023/06/26 00:24:12;;;;;;;5.05;4.30;;;19.00;1.00;;;;;;5054981;28;20209;-80
2023/06/26 00:26:38;;;;;;;4.60;4.05;;;18.90;1.00;;;;;;5054568;28;20193;-83
2023/06/26 00:29:04;;;;;;;4.18;3.78;;;18.80;1.00;;;;;;5036133;28;20174;-80
2023/06/26 00:31:30;;;;;;;4.50;3.88;;;18.80;1.00;;;;;;5036344;28;20714;-81
2023/06/26 00:33:56;;;;;;;4.60;4.00;;;18.70;1.00;;;;;;5036575;28;20169;-80
2023/06/26 00:36:22;;;;;;;4.63;4.20;;;18.60;99.90;;;;;;5036756;28;20300;-80
2023/06/26 00:38:48;;;;;;;4.28;3.88;;;18.60;1.00;;;;;;5036901;28;20230;-80
2023/06/26 00:41:14;;;;;;;5.13;4.15;;;18.50;1.00;;;;;;5036532;28;20256;-80
2023/06/26 00:43:40;;;;;;;4.65;4.15;;;18.50;99.90;;;;;;5035970;28;20199;-80
2023/06/26 00:46:12;;;;;;;4.90;4.20;;;18.50;99.90;;;;;;5054539;28;20242;-81
2023/06/26 00:48:40;;;;;;;4.72;3.95;;;18.70;1.00;;;;;;5036570;28;20176;-81
2023/06/26 00:51:06;;;;;;;4.30;3.90;;;18.80;1.00;;;;;;5053939;28;20336;-80
2023/06/26 00:53:33;;;;;;;4.32;3.92;;;18.70;99.90;;;;;;5036605;28;20205;-81
2023/06/26 00:55:59;;;;;;;4.60;4.00;;;18.70;99.90;;;;;;5054510;28;20201;-80
2023/06/26 00:58:25;;;;;;;4.78;4.28;;;18.70;91.10;;;;;;5054366;28;20177;-81
2023/06/26 01:00:51;;;;;;;4.63;4.05;;;18.60;1.00;;;;;;5053988;28;20664;-80
2023/06/26 01:03:18;;;;;;;5.05;4.18;;;18.60;99.90;;;;;;5036261;28;20232;-80
2023/06/26 01:05:45;;;;;;;4.28;3.80;;;18.60;99.90;;;;;;5053882;28;20245;-80
2023/06/26 01:08:13;;;;;;;4.93;4.43;;;18.50;1.00;;;;;;5036332;28;20265;-81
2023/06/26 01:10:39;;;;;;;4.45;4.05;;;18.30;1.00;;;;;;5053744;28;20708;-80
2023/06/26 01:13:05;;;;;;;5.15;4.25;;;18.20;1.00;;;;;;5036375;28;20182;-80
2023/06/26 01:15:30;;;;;;;5.57;4.30;;;18.20;1.00;;;;;;5054187;28;20221;-80
2023/06/26 01:17:59;;;;;;;4.63;4.13;;;18.30;1.00;;;;;;5036519;28;20184;-80
2023/06/26 01:20:25;;;;;;;5.10;4.18;;;18.30;1.00;;;;;;5036014;28;20239;-80
2023/06/26 01:23:00;;;;;;;4.78;4.38;;;18.30;99.90;;;;;;5053546;28;20194;-80
2023/06/26 01:26:01;;;;;;;5.33;4.30;;;18.20;1.00;;;;;;5053649;28;20276;-80
2023/06/26 01:28:28;;;;;;;5.38;4.43;;;18.00;99.90;;;;;;5035774;28;20180;-80
2023/06/26 01:30:54;;;;;;;5.03;4.53;;;18.00;99.90;;;;;;5054222;28;20257;-80
2023/06/26 01:33:20;;;;;;;4.72;3.90;;;18.00;1.00;;;;;;5053778;28;20173;-80
2023/06/26 01:35:46;;;;;;;4.93;4.27;;;17.90;99.90;;;;;;5035568;28;20764;-81
2023/06/26 01:38:23;;;;;;;5.40;4.53;;;17.90;99.90;;;;;;5053896;28;20178;-80
2023/06/26 01:41:19;;;;;;;4.90;4.40;;;17.90;66.60;;;;;;5054347;28;20178;-80
2023/06/26 01:43:56;;;;;;;4.30;3.90;;;17.80;99.90;;;;;;5057727;28;20201;-81
2023/06/26 01:46:41;;;;;;;5.07;3.90;;;17.80;99.90;;;;;;5057542;28;20204;-80
2023/06/26 01:49:17;;;;;;;4.27;3.87;;;17.80;99.90;;;;;;5039368;28;20170;-80
2023/06/26 01:51:47;;;;;;;4.83;3.87;;;17.70;1.00;;;;;;5056950;28;20173;-81
2023/06/26 01:54:19;;;;;;;5.47;4.10;;;17.60;99.90;;;;;;5057052;28;20327;-80
2023/06/26 01:56:48;;;;;;;4.97;4.37;;;17.60;1.00;;;;;;5056952;28;20201;-81
2023/06/26 01:59:15;;;;;;;4.80;4.30;;;17.50;1.00;;;;;;5057199;28;20239;-81
2023/06/26 02:01:40;;;;;;;5.07;4.53;;;17.50;99.90;;;;;;5039041;28;20185;-80
2023/06/26 02:04:06;;;;;;;4.83;4.33;;;17.40;1.00;;;;;;5057016;28;20329;-80
2023/06/26 02:06:31;;;;;;;5.60;4.23;;;17.60;99.90;;;;;;5056524;28;20201;-80
2023/06/26 02:08:57;;;;;;;5.10;4.40;;;17.60;1.00;;;;;;5039085;28;20170;-80
2023/06/26 02:11:23;;;;;;;4.73;4.33;;;17.60;1.00;;;;;;5057039;28;20185;-81
2023/06/26 02:13:49;;;;;;;4.90;4.30;;;17.70;99.90;;;;;;5057107;28;20178;-80
2023/06/26 02:16:14;;;;;;;5.10;4.40;;;17.60;1.00;;;;;;5039094;28;20579;-80
2023/06/26 02:18:40;;;;;;;4.90;4.20;;;17.60;99.90;;;;;;5039253;28;20210;-79
2023/06/26 02:21:06;;;;;;;4.90;4.47;;;17.60;99.90;;;;;;5038862;28;20205;-80
2023/06/26 02:23:32;;;;;;;5.03;4.00;;;17.60;1.00;;;;;;5056917;28;20206;-80
2023/06/26 02:25:57;;;;;;;5.27;4.77;;;17.60;1.00;;;;;;5056970;28;20193;-80
2023/06/26 02:28:23;;;;;;;4.60;4.17;;;17.60;1.00;;;;;;5038906;28;20174;-80
2023/06/26 02:30:48;;;;;;;4.70;4.20;;;17.40;60.90;;;;;;5056279;28;20170;-80
2023/06/26 02:33:14;;;;;;;5.00;4.37;;;17.40;99.90;;;;;;5038647;28;20184;-80
2023/06/26 02:35:39;;;;;;;5.03;4.53;;;17.30;1.00;;;;;;5056622;28;20193;-80
2023/06/26 02:38:06;;;;;;;5.17;4.67;;;17.30;1.00;;;;;;5038388;28;20243;-81
2023/06/26 02:40:32;;;;;;;5.30;4.53;;;17.30;1.00;;;;;;5038518;28;20213;-81
2023/06/26 02:42:58;;;;;;;5.40;4.30;;;17.40;1.00;;;;;;5037909;28;20239;-83
2023/06/26 02:45:23;;;;;;;5.27;4.77;;;17.40;99.90;;;;;;5056030;28;20280;-80
2023/06/26 02:47:49;;;;;;;5.07;4.30;;;17.40;1.00;;;;;;5056265;28;20174;-81
2023/06/26 02:50:14;;;;;;;4.70;4.23;;;17.40;1.00;;;;;;5038100;28;20185;-80
2023/06/26 02:52:40;;;;;;;5.53;4.50;;;17.30;1.00;;;;;;5037325;28;20185;-80
2023/06/26 02:55:06;;;;;;;4.87;4.10;;;17.10;1.00;;;;;;5056087;28;20189;-80
2023/06/26 02:57:31;;;;;;;6.27;4.50;;;17.00;99.90;;;;;;5037776;28;20165;-80
2023/06/26 02:59:57;;;;;;;4.50;4.10;;;17.10;99.90;;;;;;5055438;28;20205;-81
2023/06/26 03:02:22;;;;;;;4.53;4.00;;;17.10;99.90;;;;;;5037932;28;20208;-80
2023/06/26 03:04:49;;;;;;;5.37;4.60;;;17.10;1.00;;;;;;5056054;28;20268;-80
2023/06/26 03:07:15;;;;;;;5.00;4.50;;;17.00;1.00;;;;;;5055364;28;20255;-80
2023/06/26 03:09:41;;;;;;;6.07;4.17;;;17.10;35.90;;;;;;5054767;28;20191;-80
2023/06/26 03:12:08;;;;;;;4.70;4.00;;;17.00;1.00;;;;;;5037583;28;20177;-82
2023/06/26 03:14:33;;;;;;;5.30;4.10;;;17.00;81.10;;;;;;5037612;28;20200;-81
2023/06/26 03:17:03;;;;;;;5.13;4.63;;;17.00;1.00;;;;;;5037630;28;20194;-80
2023/06/26 03:19:28;;;;;;;5.97;4.33;;;16.90;30.60;;;;;;5055487;28;20644;-80
2023/06/26 03:21:54;;;;;;;5.50;4.70;;;17.00;1.00;;;;;;5055494;28;20170;-80
2023/06/26 03:24:20;;;;;;;4.90;4.40;;;17.00;99.90;;;;;;5055878;28;20204;-81
2023/06/26 03:26:46;;;;;;;5.60;4.20;;;16.90;99.90;;;;;;5038351;28;20225;-81
2023/06/26 03:29:11;;;;;;;5.97;4.73;;;16.90;1.00;;;;;;5037716;28;20178;-78
2023/06/26 03:31:37;;;;;;;5.07;4.20;;;16.70;99.90;;;;;;5037654;28;20242;-80
2023/06/26 03:34:03;;;;;;;4.97;4.30;;;16.70;1.00;;;;;;5055683;28;20189;-80
2023/06/26 03:36:28;;;;;;;5.10;4.57;;;16.70;1.00;;;;;;5037520;28;20250;-80
2023/06/26 03:38:56;;;;;;;5.43;4.93;;;16.70;99.90;;;;;;5037640;28;20177;-80
2023/06/26 03:41:23;;;;;;;6.07;4.77;;;16.70;99.90;;;;;;5054833;28;20182;-80
2023/06/26 03:43:49;;;;;;;5.20;4.70;;;16.60;1.00;;;;;;5055043;28;20205;-80
2023/06/26 03:46:14;;;;;;;5.47;4.40;;;16.70;1.00;;;;;;5054625;28;20186;-82
2023/06/26 03:48:40;;;;;;;5.47;4.93;;;16.60;99.90;;;;;;5054882;28;20174;-80
2023/06/26 03:51:07;;;;;;;5.53;4.53;;;16.60;99.90;;;;;;5037036;28;20173;-80
2023/06/26 03:53:33;;;;;;;6.37;4.63;;;16.60;99.90;;;;;;5054926;28;20224;-80
2023/06/26 03:55:58;;;;;;;5.77;5.07;;;16.60;1.00;;;;;;5036685;28;20197;-81
2023/06/26 03:58:25;;;;;;;5.27;4.67;;;16.70;99.90;;;;;;5037724;28;20185;-81
2023/06/26 04:00:50;;;;;;;5.30;4.80;;;16.80;99.90;;;;;;5037204;28;20224;-81
2023/06/26 04:03:16;;;;;;;5.60;4.67;;;16.80;99.90;;;;;;5037358;28;20198;-81
2023/06/26 04:05:41;;;;;;;6.07;4.67;;;16.80;99.90;;;;;;5037641;28;20193;-82
2023/06/26 04:08:08;;;;;;;5.10;4.60;;;16.70;99.90;;;;;;5037266;28;20227;-81
2023/06/26 04:10:33;;;;;;;5.90;4.90;;;16.70;99.90;;;;;;5055060;28;20220;-83
2023/06/26 04:12:59;;;;;;;5.40;4.83;;;16.80;1.00;;;;;;5037369;28;20269;-81
2023/06/26 04:15:24;;;;;;;5.97;4.50;;;16.90;1.00;;;;;;5055190;28;20668;-81
2023/06/26 04:17:50;;;;;;;6.23;4.87;;;16.90;1.00;;;;;;5055056;28;20177;-82
2023/06/26 04:20:16;;;;;;;5.67;4.67;;;16.80;1.00;;;;;;5054368;28;20185;-83
2023/06/26 04:22:41;;;;;;;5.27;4.37;;;16.80;99.90;;;;;;5055003;28;20263;-81
2023/06/26 04:25:07;;;;;;;6.87;4.43;;;16.90;1.00;;;;;;5037549;28;20177;-81
2023/06/26 04:27:33;;;;;;;7.03;4.93;;;16.80;1.00;;;;;;5036812;28;20174;-81
2023/06/26 04:29:58;;;;;;;5.07;4.50;;;16.90;1.00;;;;;;5054873;28;20685;-81
2023/06/26 04:32:24;;;;;;;7.10;4.73;;;16.90;1.00;;;;;;5037042;28;20177;-81
2023/06/26 04:34:49;;;;;;;4.97;4.47;;;17.00;99.90;;;;;;5037049;28;20177;-81
2023/06/26 04:37:17;;;;;;;5.73;4.40;;;17.00;99.90;;;;;;5037160;28;20239;-81
2023/06/26 04:39:43;;;;;;;5.00;4.50;;;17.00;1.00;;;;;;5036279;28;20178;-79
2023/06/26 04:42:11;;;;;;;5.80;4.63;;;16.90;99.90;;;;;;5052870;28;20204;-79
2023/06/26 04:44:37;;;;;;;4.77;4.27;;;17.00;99.90;;;;;;5034698;28;20174;-79
2023/06/26 04:47:03;;;;;;;5.67;4.67;;;17.10;99.90;;;;;;5052584;28;20196;-80
2023/06/26 04:49:29;;;;;;;5.27;4.77;;;17.10;99.90;;;;;;5052460;28;20690;-80
2023/06/26 04:51:55;;;;;;;6.50;4.73;;;17.10;1.00;;;;;;5034586;28;20170;-81
2023/06/26 04:54:21;;;;;;;4.90;4.50;;;17.10;1.00;;;;;;5052818;28;20200;-82
2023/06/26 04:56:47;;;;;;;5.60;4.50;;;17.20;1.00;;;;;;5034951;28;20189;-79
2023/06/26 04:59:14;;;;;;;4.93;4.53;;;17.30;1.00;;;;;;5052308;28;20640;-79
2023/06/26 05:01:40;;;;;;;5.60;5.10;;;17.40;1.00;;;;;;5052063;28;20169;-79
2023/06/26 05:04:06;;;;;;;5.30;4.73;;;17.40;1.00;;;;;;5034047;28;20193;-80
2023/06/26 05:06:32;;;;;;;5.37;4.57;;;17.40;1.00;;;;;;5052041;28;20247;-79
2023/06/26 05:08:57;;;;;;;6.13;5.10;;;17.40;1.00;;;;;;5034638;28;20177;-79
2023/06/26 05:11:25;;;;;;;5.20;4.70;;;17.50;1.00;;;;;;5034513;28;20166;-79
2023/06/26 05:13:50;;;;;;;6.10;5.50;;;17.60;1.00;;;;;;5034153;28;20178;-79
2023/06/26 05:16:16;;;;;;;7.70;5.10;;;17.60;1.00;;;;;;5036104;28;20193;-79
2023/06/26 05:18:41;;;;;;;5.83;5.23;;;17.70;1.00;;;;;;5056145;28;20169;-79
2023/06/26 05:21:07;;;;;;;5.87;5.27;;;17.70;1.00;;;;;;5038500;28;20273;-79
2023/06/26 05:23:34;;;;;;;5.47;4.97;;;17.80;1.00;;;;;;5056845;28;20686;-79
2023/06/26 05:26:03;;;;;;;5.50;5.00;;;17.90;8.70;;;;;;5056446;28;20186;-79
2023/06/26 05:28:31;;;;;;;5.90;5.30;;;17.90;26.30;;;;;;5056692;28;20263;-82
2023/06/26 05:30:57;;;;;;;5.70;5.10;;;18.00;61.30;;;;;;5056800;28;20169;-82
2023/06/26 05:33:24;;;;;;;5.93;5.33;;;18.10;1.00;;;;;;5038519;28;20196;-82
2023/06/26 05:35:52;;;;;;;6.10;5.47;;;18.20;1.00;;;;;;5038357;28;20193;-82
2023/06/26 05:38:18;;;;;;;5.90;5.30;;;18.30;1.00;;;;;;5056134;28;20656;-82
2023/06/26 05:40:44;;;;;;;5.83;5.20;;;18.30;1.00;;;;;;5038215;28;20184;-80
2023/06/26 05:43:10;;;;;;;6.13;5.17;;;18.40;1.00;;;;;;5038924;28;20284;-80
2023/06/26 05:45:35;;;;;;;5.77;5.17;;;18.50;1.00;;;;;;5056212;28;20218;-82
2023/06/26 05:48:01;;;;;;;5.80;5.30;;;18.70;1.00;;;;;;5056516;28;20240;-82
2023/06/26 05:50:28;;;;;;;6.83;5.30;;;18.80;1.00;;;;;;5038891;28;20169;-80
2023/06/26 05:52:54;;;;;;;6.60;5.70;;;18.90;1.00;;;;;;5039665;28;20170;-81
2023/06/26 05:55:20;;;;;;;5.87;5.37;;;19.00;1.00;;;;;;5040930;28;20198;-83
2023/06/26 05:57:47;;;;;;;6.43;5.45;;;19.10;99.90;;;;;;5058187;28;20170;-81
2023/06/26 06:00:13;;;;;;;5.93;5.33;;;19.10;1.00;;;;;;5057614;28;20180;-80
2023/06/26 06:02:41;;;;;;;5.80;5.10;;;19.20;99.90;;;;;;5039985;28;20204;-80
2023/06/26 06:05:16;;;;;;;5.82;5.22;;;19.30;1.00;;;;;;5058309;28;20170;-79
2023/06/26 06:07:41;;;;;;;5.60;5.10;;;19.40;1.00;;;;;;5039506;28;20189;-80
2023/06/26 06:10:07;;;;;;;5.10;4.60;;;19.50;1.00;;;;;;5039518;28;20174;-81
2023/06/26 06:12:33;;;;;;;5.38;4.43;;;19.70;99.90;;;;;;5039704;28;20178;-80
2023/06/26 06:14:58;;;;;;;5.97;4.60;;;20.30;1.00;;;;;;5057331;28;20174;-82
2023/06/26 06:17:24;;;;;;;5.07;4.57;;;20.80;99.90;;;;;;5039891;28;20639;-80
2023/06/26 06:19:50;;;;;;;5.43;4.93;;;21.20;99.90;;;;;;5039881;28;20173;-80
2023/06/26 06:22:16;;;;;;;5.65;4.68;;;21.50;1.00;;;;;;5058438;28;20174;-81
2023/06/26 06:24:42;;;;;;;5.00;4.50;;;21.40;1.00;;;;;;5057802;28;20188;-81
2023/06/26 06:27:07;;;;;;;5.25;4.75;;;21.50;1.00;;;;;;5057199;28;20258;-81
2023/06/26 06:29:33;;;;;;;4.95;4.45;;;21.70;1.00;;;;;;5039815;28;20728;-84
2023/06/26 06:31:58;;;;;;;5.63;5.07;;;21.70;1.00;;;;;;5038504;28;20170;-81
2023/06/26 06:34:24;;;;;;;5.13;4.60;;;21.90;23.80;;;;;;5057838;28;20531;-81
2023/06/26 06:36:50;;;;;;;7.05;5.45;;;22.00;1.00;;;;;;5057411;28;20194;-81
2023/06/26 06:39:15;;;;;;;6.05;5.45;;;22.10;9.20;;;;;;5040438;28;20184;-81
2023/06/26 06:41:41;;;;;;;5.10;4.60;;;22.10;1.00;;;;;;5057747;28;20189;-81
2023/06/26 06:44:07;;;;;;;6.50;4.75;;;22.00;99.90;;;;;;5039136;28;20640;-81
2023/06/26 06:46:33;;;;;;;5.70;5.18;;;22.10;99.90;;;;;;5039763;28;20221;-82
2023/06/26 06:49:00;;;;;;;5.65;5.15;;;22.20;54.40;;;;;;5038292;28;20183;-81
2023/06/26 06:51:25;;;;;;;5.57;4.95;;;22.30;99.90;;;;;;5038062;28;20228;-81
2023/06/26 06:53:51;;;;;;;5.10;4.60;;;22.40;99.90;;;;;;5037817;28;20173;-81
2023/06/26 06:56:16;;;;;;;7.03;4.97;;;22.50;1.00;;;;;;5037840;28;20193;-83
2023/06/26 06:58:43;;;;;;;5.88;5.28;;;22.60;99.90;;;;;;5037957;28;20225;-81
2023/06/26 07:01:12;;;;;;;5.30;4.80;;;22.70;99.90;;;;;;5037559;28;20233;-84
2023/06/26 07:03:37;;;;;;;5.03;4.53;;;22.80;1.00;;;;;;5037816;28;20208;-81
2023/06/26 07:06:03;;;;;;;5.40;4.47;;;23.00;1.00;;;;;;5055291;28;20213;-82
2023/06/26 07:08:29;;;;;;;5.63;4.53;;;23.10;1.00;;;;;;5038845;28;20202;-82
2023/06/26 07:10:56;;;;;;;5.50;4.57;;;23.30;99.90;;;;;;5055990;28;20180;-81
2023/06/26 07:13:22;;;;;;;5.07;4.28;;;23.50;46.70;;;;;;5056446;28;20178;-81
2023/06/26 07:15:47;;;;;;;5.30;4.28;;;23.70;1.00;;;;;;5038447;28;20204;-81
2023/06/26 07:18:14;;;;;;;6.00;4.78;;;23.80;99.90;;;;;;5055847;28;20252;-82
2023/06/26 07:20:39;;;;;;;4.82;3.92;;;23.90;99.90;;;;;;5038342;28;20245;-81
2023/06/26 07:23:05;;;;;;;5.00;4.20;;;24.10;99.90;;;;;;5038281;28;20292;-84
2023/06/26 07:25:31;;;;;;;4.85;4.22;;;24.20;1.00;;;;;;5056488;28;20194;-82
2023/06/26 07:27:56;;;;;;;4.43;4.03;;;24.40;99.90;;;;;;5038418;28;20272;-81
2023/06/26 07:30:22;;;;;;;5.25;4.70;;;24.50;99.90;;;;;;5038117;28;20174;-81
2023/06/26 07:32:48;;;;;;;4.65;4.18;;;24.60;99.90;;;;;;5055620;28;20265;-82
2023/06/26 07:35:13;;;;;;;4.78;4.30;;;24.70;99.90;;;;;;5055026;28;20260;-81
2023/06/26 07:37:40;;;;;;;4.40;4.00;;;24.90;99.90;;;;;;5056527;28;20173;-83
2023/06/26 07:40:06;;;;;;;5.70;4.20;;;25.00;1.00;;;;;;5038844;28;20181;-81
2023/06/26 07:42:32;;;;;;;4.63;4.20;;;25.10;1.00;;;;;;5058455;28;20193;-82
2023/06/26 07:44:58;;;;;;;6.38;4.38;;;25.20;1.00;;;;;;5057514;28;20544;-80
2023/06/26 07:47:23;;;;;;;6.20;4.38;;;25.20;99.90;;;;;;5058057;28;20235;-81
2023/06/26 07:49:49;;;;;;;6.35;4.43;;;25.30;99.90;;;;;;5056005;28;20172;-84
2023/06/26 07:52:15;;;;;;;5.15;4.40;;;25.40;99.90;;;;;;5054730;28;20589;-82
2023/06/26 07:54:40;;;;;;;5.00;4.38;;;25.50;1.00;;;;;;5037112;28;20174;-84
2023/06/26 07:57:06;;;;;;;5.00;4.38;;;25.60;1.00;;;;;;5054913;28;20247;-82
2023/06/26 07:59:33;;;;;;;5.00;4.25;;;25.70;1.00;;;;;;5036980;28;20227;-82
2023/06/26 08:01:58;;;;;;;5.53;4.30;;;25.80;1.00;;;;;;5054444;28;20212;-81
2023/06/26 08:04:26;;;;;;;6.10;4.30;;;25.90;1.00;;;;;;5054758;28;20209;-82
2023/06/26 08:06:56;;;;;;;5.20;4.10;;;26.00;1.00;;;;;;5036381;28;20205;-82
2023/06/26 08:09:24;;;;;;;4.75;4.13;;;26.00;1.00;;;;;;5036234;28;20180;-82
2023/06/26 08:11:50;;;;;;;6.22;4.40;;;26.20;1.00;;;;;;5053942;28;20222;-85
2023/06/26 08:14:16;;;;;;;5.55;4.30;;;26.30;1.00;;;;;;5054686;28;20177;-82
2023/06/26 08:16:46;;;;;;;5.40;4.60;;;26.30;1.00;;;;;;5036660;28;20194;-81
2023/06/26 08:19:15;;;;;;;5.35;4.55;;;26.40;1.00;;;;;;5036793;28;20189;-82
2023/06/26 08:21:43;;;;;;;5.30;4.50;;;26.50;1.00;;;;;;5036668;28;20192;-82
2023/06/26 08:24:09;;;;;;;5.32;4.10;;;26.60;1.00;;;;;;5054400;28;20189;-81
2023/06/26 08:26:35;;;;;;;4.30;3.90;;;26.70;1.00;;;;;;5054675;28;20190;-81
2023/06/26 08:29:01;;;;;;;5.30;4.15;;;26.80;99.90;;;;;;5054482;28;20170;-82
2023/06/26 08:31:26;;;;;;;4.40;3.85;;;26.90;99.90;;;;;;5054122;28;20566;-82
2023/06/26 08:33:52;;;;;;;4.80;4.30;;;27.00;99.90;;;;;;5054501;28;20223;-82
2023/06/26 08:36:17;;;;;;;4.45;4.05;;;27.20;99.90;;;;;;5053997;28;20251;-81
2023/06/26 08:38:43;;;;;;;4.85;4.35;;;27.30;99.90;;;;;;5036672;28;20188;-80
2023/06/26 08:41:09;;;;;;;4.85;4.45;;;27.30;99.90;;;;;;5036540;28;20227;-81
2023/06/26 08:43:35;;;;;;;4.65;4.25;;;27.30;99.90;;;;;;5053575;28;20248;-82
2023/06/26 08:46:02;;;;;;;5.07;4.07;;;27.40;99.90;;;;;;5036267;28;20277;-81
2023/06/26 08:48:33;;;;;;;4.88;4.47;;;27.40;99.90;;;;;;5054206;28;20211;-79
2023/06/26 08:51:05;;;;;;;4.95;4.43;;;27.50;99.90;;;;;;5035823;28;20162;-82
2023/06/26 08:53:37;;;;;;;5.60;4.43;;;27.70;99.90;;;;;;5054031;28;20184;-82
2023/06/26 08:56:03;;;;;;;5.10;4.50;;;27.80;99.90;;;;;;5035908;28;20216;-81
2023/06/26 08:58:30;;;;;;;5.05;4.55;;;28.00;99.90;;;;;;5035612;28;20180;-82
2023/06/26 09:00:56;;;;;;;4.85;4.45;;;28.10;99.90;;;;;;5035928;28;20273;-82
2023/06/26 09:03:22;;;;;;;5.20;4.70;;;28.20;99.90;;;;;;5035797;28;20285;-81
2023/06/26 09:05:48;;;;;;;6.60;4.75;;;28.30;99.90;;;;;;5035675;28;20213;-82
2023/06/26 09:08:14;;;;;;;6.18;4.60;;;28.30;99.90;;;;;;5036227;28;20644;-82
2023/06/26 09:10:40;;;;;;;5.00;4.60;;;28.30;99.90;;;;;;5053720;28;20243;-82
2023/06/26 09:13:06;;;;;;;5.15;4.65;;;28.40;99.90;;;;;;5035965;28;20193;-83
2023/06/26 09:15:53;;;;;;;4.78;4.38;;;28.40;99.90;;;;;;5035966;28;20216;-83
2023/06/26 09:18:19;;;;;;;5.10;4.57;;;28.50;99.90;;;;;;5064117;28;20170;-82
2023/06/26 09:20:45;;;;;;;5.10;4.60;;;28.60;99.90;;;;;;5058867;28;20200;-82
2023/06/26 09:23:11;;;;;;;5.13;4.63;;;28.60;99.90;;;;;;5053663;28;20201;-82
2023/06/26 09:25:42;;;;;;;4.90;4.47;;;28.80;99.90;;;;;;5035836;28;20193;-82
2023/06/26 09:28:08;;;;;;;4.72;4.22;;;28.90;99.90;;;;;;5036092;28;20646;-85
2023/06/26 09:30:35;;;;;;;4.90;4.40;;;29.00;99.90;;;;;;5035602;28;20205;-82
2023/06/26 09:33:18;;;;;;;4.93;4.43;;;29.10;99.90;;;;;;5053816;28;20174;-82
2023/06/26 09:35:44;;;;;;;4.57;4.18;;;29.20;99.90;;;;;;5053404;28;20201;-82
2023/06/26 09:38:12;;;;;;;5.15;4.65;;;29.30;99.90;;;;;;5054398;28;20170;-82
2023/06/26 09:40:38;;;;;;;4.88;4.45;;;29.30;99.90;;;;;;5036390;28;20174;-81
2023/06/26 09:43:08;;;;;;;4.75;4.32;;;29.40;99.90;;;;;;5054529;28;20200;-81
2023/06/26 09:45:36;;;;;;;4.47;4.07;;;29.60;99.90;;;;;;5056738;28;20189;-82
2023/06/26 09:48:05;;;;;;;5.07;4.57;;;29.80;99.90;;;;;;5037205;28;20170;-81
2023/06/26 09:50:34;;;;;;;4.88;4.47;;;29.80;99.90;;;;;;5036711;28;20577;-79
2023/06/26 09:53:18;;;;;;;4.60;4.20;;;30.00;99.90;;;;;;5037470;28;20271;-81
2023/06/26 09:55:43;;;;;;;4.72;4.30;;;30.10;99.90;;;;;;5039454;28;20193;-82
2023/06/26 09:58:14;;;;;;;7.95;4.22;;;30.10;99.90;;;;;;5039227;28;20223;-81
2023/06/26 10:00:40;;;;;;;5.10;4.57;;;30.20;99.90;;;;;;5039539;28;20178;-82
2023/06/26 10:03:05;;;;;;;4.80;4.30;;;30.30;99.90;;;;;;5060375;28;20749;-83
2023/06/26 10:05:31;;;;;;;7.00;4.70;;;30.20;99.90;;;;;;5044933;28;20196;-81
2023/06/26 10:07:58;;;;;;;5.72;4.22;;;30.40;99.90;;;;;;5043251;28;20185;-82
2023/06/26 10:10:25;;;;;;;4.88;4.38;;;30.60;99.90;;;;;;5041689;28;20559;-82
2023/06/26 10:12:54;;;;;;;4.63;4.22;;;30.60;99.90;;;;;;5059649;28;20180;-83
2023/06/26 10:15:23;;;;;;;4.85;4.35;;;30.50;99.90;;;;;;5037784;28;20197;-79
2023/06/26 10:17:49;;;;;;;5.13;4.65;;;30.10;99.90;;;;;;5055512;28;20252;-80
2023/06/26 10:20:16;;;;;;;4.88;4.20;;;29.90;99.90;;;;;;5055666;28;20174;-81
2023/06/26 10:22:45;;;;;;;5.80;5.20;;;30.00;99.90;;;;;;5056480;28;20284;-80
2023/06/26 10:25:14;;;;;;;4.80;4.30;;;30.30;99.90;;;;;;5038566;28;20224;-83
2023/06/26 10:27:45;;;;;;;5.38;4.50;;;30.40;99.90;;;;;;5038617;28;20247;-81
2023/06/26 10:30:16;;;;;;;5.95;4.78;;;30.30;99.90;;;;;;5056622;28;20193;-80
2023/06/26 10:32:42;;;;;;;6.82;5.03;;;30.10;99.90;;;;;;5056407;28;20723;-82
2023/06/26 10:35:09;;;;;;;5.90;4.68;;;29.80;99.90;;;;;;5038977;28;20188;-81
2023/06/26 10:37:42;;;;;;;5.93;4.43;;;29.70;99.90;;;;;;5057230;28;20169;-83
2023/06/26 10:40:08;;;;;;;6.07;4.97;;;29.60;99.90;;;;;;5055581;28;20201;-83
2023/06/26 10:42:36;;;;;;;5.28;4.55;;;29.30;99.90;;;;;;5054692;28;20312;-83
2023/06/26 10:45:14;;;;;;;5.30;4.80;;;29.20;99.90;;;;;;5037407;28;20177;-82
2023/06/26 10:47:41;;;;;;;5.55;5.05;;;29.10;99.90;;;;;;5039496;28;20184;-81
2023/06/26 10:50:22;;;;;;;5.40;4.80;;;28.90;99.90;;;;;;5039131;28;20166;-81
2023/06/26 10:53:26;;;;;;;4.60;4.20;;;28.80;99.90;;;;;;5057851;28;20178;-81
2023/06/26 10:56:02;;;;;;;4.97;4.47;;;28.80;99.90;;;;;;5039083;28;20758;-81
2023/06/26 10:58:40;;;;;;;4.93;4.50;;;28.80;99.90;;;;;;5057774;28;20215;-81
2023/06/26 11:01:14;;;;;;;4.68;4.28;;;28.90;99.90;;;;;;5040361;28;20177;-81
2023/06/26 11:04:01;;;;;;;5.20;4.70;;;28.90;99.90;;;;;;5057364;28;20216;-83
2023/06/26 11:06:27;;;;;;;4.85;4.38;;;28.80;99.90;;;;;;5056127;28;20197;-81
2023/06/26 11:08:54;;;;;;;6.45;5.13;;;28.60;99.90;;;;;;5057097;28;20176;-81
2023/06/26 11:11:21;;;;;;;6.35;4.75;;;28.50;99.90;;;;;;5040173;28;20196;-81
2023/06/26 11:13:47;;;;;;;5.35;4.85;;;28.30;99.90;;;;;;5043151;28;20227;-81
2023/06/26 11:16:14;;;;;;;5.68;5.05;;;28.20;99.90;;;;;;5059043;28;20202;-81
2023/06/26 11:18:40;;;;;;;5.60;4.55;;;28.30;99.90;;;;;;5040631;28;20181;-80
2023/06/26 11:21:14;;;;;;;5.28;4.75;;;28.30;99.90;;;;;;5040093;28;20203;-81
2023/06/26 11:23:40;;;;;;;6.00;5.28;;;28.30;99.90;;;;;;5058550;28;20212;-80
2023/06/26 11:26:21;;;;;;;5.72;5.18;;;28.10;99.90;;;;;;5039062;28;20194;-80
2023/06/26 11:28:51;;;;;;;5.55;5.00;;;28.10;99.90;;;;;;5057218;28;20177;-81
2023/06/26 11:31:26;;;;;;;6.47;5.03;;;28.10;99.90;;;;;;5057066;28;20170;-80
2023/06/26 11:33:54;;;;;;;5.57;4.78;;;28.20;99.90;;;;;;5057443;28;20553;-81
2023/06/26 11:36:19;;;;;;;4.90;4.38;;;28.20;99.90;;;;;;5040267;28;20228;-81
2023/06/26 11:38:45;;;;;;;5.65;5.07;;;28.30;99.90;;;;;;5040314;28;20174;-81
2023/06/26 11:41:16;;;;;;;5.40;4.88;;;28.20;99.90;;;;;;5057459;28;20173;-80
2023/06/26 11:43:41;;;;;;;6.10;5.20;;;28.20;99.90;;;;;;5057301;28;20198;-82
2023/06/26 11:46:07;;;;;;;5.22;4.72;;;28.20;99.90;;;;;;5056835;28;20205;-81
2023/06/26 11:48:33;;;;;;;5.60;5.10;;;28.10;99.90;;;;;;5039116;28;20205;-81
2023/06/26 11:50:58;;;;;;;6.07;5.30;;;28.10;99.90;;;;;;5037994;28;20197;-81
2023/06/26 11:53:24;;;;;;;6.03;5.18;;;28.20;99.90;;;;;;5039046;28;20185;-80
2023/06/26 11:55:49;;;;;;;6.18;5.40;;;28.30;99.90;;;;;;5039157;28;20216;-81
2023/06/26 11:58:15;;;;;;;7.22;5.60;;;28.50;99.90;;;;;;5056663;28;20170;-81
2023/06/26 12:00:43;;;;;;;5.93;5.28;;;28.70;99.90;;;;;;5056395;28;20177;-81
2023/06/26 12:03:10;;;;;;;5.70;5.20;;;28.80;99.90;;;;;;5056829;28;20251;-81
2023/06/26 12:05:35;;;;;;;6.53;5.88;;;28.60;99.90;;;;;;5057314;28;20261;-81
2023/06/26 12:08:03;;;;;;;6.05;5.50;;;28.40;99.90;;;;;;5036941;28;20324;-85
2023/06/26 12:10:29;;;;;;;6.03;5.47;;;28.40;99.90;;;;;;5036324;28;20209;-81
2023/06/26 12:12:58;;;;;;;6.47;5.80;;;28.30;99.90;;;;;;5052209;28;20178;-83
2023/06/26 12:15:24;;;;;;;6.07;5.18;;;28.20;99.90;;;;;;5053455;28;20221;-83
2023/06/26 12:17:50;;;;;;;5.90;5.28;;;28.20;99.90;;;;;;5035614;28;20218;-85
2023/06/26 12:20:23;;;;;;;6.10;5.50;;;28.00;99.90;;;;;;5036267;28;20169;-83
2023/06/26 12:22:49;;;;;;;6.20;5.60;;;27.80;1.00;;;;;;5055774;28;20711;-82
2023/06/26 12:25:15;;;;;;;6.07;5.47;;;27.70;1.00;;;;;;5055568;28;20174;-80
2023/06/26 12:27:41;;;;;;;6.60;5.63;;;27.60;1.00;;;;;;5053946;28;20173;-84
2023/06/26 12:30:07;;;;;;;7.15;6.00;;;27.70;1.00;;;;;;5053003;28;20173;-84
2023/06/26 12:32:34;;;;;;;6.50;5.90;;;27.70;1.00;;;;;;5054549;28;20173;-79
2023/06/26 12:35:00;;;;;;;6.22;5.63;;;27.70;1.00;;;;;;5037066;28;20176;-81
2023/06/26 12:37:26;;;;;;;6.15;5.55;;;27.70;1.00;;;;;;5055103;28;20172;-80
2023/06/26 12:39:54;;;;;;;6.50;5.90;;;27.70;1.00;;;;;;5054610;28;20173;-80
2023/06/26 12:42:21;;;;;;;6.18;5.57;;;27.60;1.00;;;;;;5036579;28;20178;-79
2023/06/26 12:44:47;;;;;;;6.40;5.55;;;27.50;1.00;;;;;;5036774;28;20176;-80
2023/06/26 12:47:17;;;;;;;6.82;5.70;;;27.60;1.00;;;;;;5054554;28;20185;-79
2023/06/26 12:49:45;;;;;;;7.07;5.53;;;27.50;1.00;;;;;;5036458;28;20172;-80
2023/06/26 12:52:15;;;;;;;6.00;5.50;;;27.40;1.00;;;;;;5036395;28;20170;-80